Time;durP1;ratioP1;P1;durP2;ratioP2;P2;SDS_P1;SDS_P2;PMS_P1;PMS_P2;Temp;Humidity;BMP_temperature;BMP_pressure;BME280_temperature;BME280_humidity;BME280_pressure;Samples;Min_cycle;Max_cycle;Signal;HPM_P1;HPM_P2
2021/12/15 00:01:42;;;;;;;108.20;14.30;;;;;;;;;;4975708;28;20206;-50
2021/12/15 00:04:08;;;;;;;98.37;13.07;;;;;;;;;;4973582;28;20247;-51
2021/12/15 00:06:34;;;;;;;86.03;11.40;;;;;;;;;;4968649;28;20229;-51
2021/12/15 00:09:03;;;;;;;105.67;13.93;;;7.50;99.90;;;;;;4976021;28;20190;-51
2021/12/15 00:11:35;;;;;;;116.10;15.10;;;;;;;;;;4970313;28;20222;-50
2021/12/15 00:14:03;;;;;;;124.80;16.20;;;7.80;99.90;;;;;;4971633;28;20603;-51
2021/12/15 00:16:29;;;;;;;60.07;8.33;;;;;;;;;;4975429;28;20195;-51
2021/12/15 00:18:55;;;;;;;110.50;14.57;;;;;;;;;;4970909;28;20316;-50
2021/12/15 00:21:21;;;;;;;79.17;10.50;;;;;;;;;;4974544;28;20606;-51
2021/12/15 00:23:48;;;;;;;119.37;15.60;;;;;;;;;;4972661;28;20229;-50
2021/12/15 00:26:15;;;;;;;107.57;13.97;;;7.50;99.90;;;;;;4971847;28;20186;-50
2021/12/15 00:28:42;;;;;;;102.27;13.63;;;;;;;;;;4974070;28;20823;-51
2021/12/15 00:31:08;;;;;;;102.93;13.60;;;7.50;99.90;;;;;;4968470;28;20721;-50
2021/12/15 00:33:35;;;;;;;141.40;18.37;;;7.70;99.90;;;;;;4975005;28;20242;-51
2021/12/15 00:36:01;;;;;;;87.10;11.70;;;;;;;;;;4969238;28;20262;-51
2021/12/15 00:38:27;;;;;;;137.90;17.83;;;;;;;;;;4960645;28;20214;-49
2021/12/15 00:40:53;;;;;;;57.07;7.87;;;;;;;;;;4966313;28;20393;-50
2021/12/15 00:43:20;;;;;;;146.70;19.37;;;;;;;;;;4973315;28;20210;-50
2021/12/15 00:45:46;;;;;;;126.70;16.60;;;;;;;;;;4969298;28;20830;-51
2021/12/15 00:48:12;;;;;;;131.50;17.20;;;;;;;;;;4970482;28;20812;-50
2021/12/15 00:50:38;;;;;;;96.27;12.77;;;;;;;;;;4968999;28;20214;-51
2021/12/15 00:53:06;;;;;;;68.80;9.27;;;7.60;99.90;;;;;;4976808;28;20201;-51
2021/12/15 00:55:32;;;;;;;109.43;14.63;;;;;;;;;;4965064;28;20186;-50
2021/12/15 00:57:59;;;;;;;206.40;26.57;;;;;;;;;;4965709;28;20197;-51
2021/12/15 01:00:32;;;;;;;127.83;16.73;;;7.50;99.90;;;;;;4964349;28;20198;-51
2021/12/15 01:02:58;;;;;;;114.07;15.20;;;;;;;;;;4969805;28;20292;-51
2021/12/15 01:05:27;;;;;;;159.90;21.10;;;7.40;99.90;;;;;;4966293;28;20272;-50
2021/12/15 01:07:53;;;;;;;154.60;19.87;;;;;;;;;;4963622;28;20272;-51
2021/12/15 01:10:27;;;;;;;163.70;20.87;;;7.60;99.90;;;;;;4973337;28;20292;-50
2021/12/15 01:21:07;;;;;;;121.40;15.87;;;;;;;;;;4966119;28;20324;-50
2021/12/15 01:23:33;;;;;;;145.97;19.00;;;;;;;;;;4976181;28;20186;-51
2021/12/15 01:25:59;;;;;;;141.77;18.70;;;;;;;;;;4968671;28;20194;-50
2021/12/15 01:28:26;;;;;;;131.37;17.27;;;;;;;;;;4964767;28;20272;-51
2021/12/15 01:30:52;;;;;;;91.30;12.23;;;;;;;;;;4962821;28;20216;-51
2021/12/15 01:33:18;;;;;;;141.23;18.47;;;;;;;;;;4974187;28;20664;-51
2021/12/15 01:35:47;;;;;;;90.77;12.13;;;7.60;99.90;;;;;;4965421;28;20197;-51
2021/12/15 01:38:15;;;;;;;98.30;12.90;;;7.50;99.90;;;;;;4960763;28;20190;-51
2021/12/15 01:40:44;;;;;;;131.80;17.93;;;7.70;99.90;;;;;;4970154;28;20237;-51
2021/12/15 01:43:17;;;;;;;129.90;16.73;;;7.60;99.90;;;;;;4967832;28;20202;-51
2021/12/15 01:48:35;;;;;;;130.73;16.97;;;7.60;99.90;;;;;;4966082;28;20244;-51
2021/12/15 01:51:02;;;;;;;160.97;20.87;;;;;;;;;;4962381;28;20297;-51
2021/12/15 01:53:28;;;;;;;132.53;17.57;;;;;;;;;;4968226;28;20201;-51
2021/12/15 01:55:54;;;;;;;149.50;19.47;;;;;;;;;;4965042;28;20189;-50
2021/12/15 01:58:20;;;;;;;109.17;14.23;;;;;;;;;;4967470;28;20622;-51
2021/12/15 02:00:51;;;;;;;253.33;32.77;;;7.60;99.90;;;;;;4963714;28;20216;-50
2021/12/15 02:03:19;;;;;;;128.80;16.73;;;7.60;99.90;;;;;;4969850;28;20240;-51
2021/12/15 02:05:45;;;;;;;80.27;10.90;;;;;;;;;;4964769;28;20214;-50
2021/12/15 02:08:12;;;;;;;163.23;20.57;;;;;;;;;;4958651;28;20276;-51
2021/12/15 02:10:40;;;;;;;127.20;16.80;;;7.50;99.90;;;;;;4968613;28;20336;-51
2021/12/15 02:13:07;;;;;;;85.90;11.53;;;7.50;99.90;;;;;;4967197;28;20259;-50
2021/12/15 02:15:37;;;;;;;62.47;8.57;;;7.60;99.90;;;;;;4966365;28;20216;-51
2021/12/15 02:18:09;;;;;;;70.37;9.47;;;7.10;99.90;;;;;;4973207;28;20545;-50
2021/12/15 02:20:47;;;;;;;84.90;11.40;;;7.60;99.90;;;;;;4969359;28;20190;-50
2021/12/15 02:23:17;;;;;;;121.07;16.13;;;7.70;99.90;;;;;;4976929;28;20271;-51
2021/12/15 02:25:43;;;;;;;116.63;15.30;;;;;;;;;;4972940;28;20712;-51
2021/12/15 02:28:09;;;;;;;145.33;18.80;;;;;;;;;;4970046;28;20185;-50
2021/12/15 02:30:55;;;;;;;149.50;19.80;;;7.60;99.90;;;;;;4968884;28;20221;-51
2021/12/15 02:38:53;;;;;;;117.03;15.20;;;;;;;;;;4968129;28;20247;-50
2021/12/15 02:41:20;;;;;;;75.73;10.47;;;7.50;99.90;;;;;;4972625;28;20555;-51
2021/12/15 02:43:51;;;;;;;109.83;14.33;;;7.60;99.90;;;;;;4966092;28;20798;-50
2021/12/15 02:46:17;;;;;;;104.43;13.90;;;7.60;99.90;;;;;;4974435;28;20202;-51
2021/12/15 02:48:43;;;;;;;108.77;14.37;;;;;;;;;;4971272;28;20204;-50
2021/12/15 02:51:09;;;;;;;122.23;16.10;;;7.70;99.90;;;;;;4972783;28;20257;-51
2021/12/15 02:53:35;;;;;;;156.77;19.97;;;;;;;;;;4974306;28;20212;-50
2021/12/15 02:56:01;;;;;;;158.50;20.33;;;;;;;;;;4972357;28;20182;-51
2021/12/15 02:58:32;;;;;;;188.93;25.63;;;;;;;;;;4977417;28;20196;-51
2021/12/15 03:01:04;;;;;;;112.87;14.73;;;;;;;;;;4976917;28;20186;-50
2021/12/15 03:04:06;;;;;;;164.03;21.30;;;;;;;;;;4973143;28;20272;-50
2021/12/15 03:06:50;;;;;;;105.43;13.87;;;;;;;;;;4968425;28;20243;-51
2021/12/15 03:17:31;;;;;;;88.30;11.90;;;;;;;;;;4968804;28;20282;-51
2021/12/15 03:19:57;;;;;;;161.57;20.57;;;;;;;;;;4972667;28;20289;-51
2021/12/15 03:22:23;;;;;;;114.93;15.17;;;;;;;;;;4973906;28;20310;-51
2021/12/15 03:24:49;;;;;;;98.30;13.03;;;;;;;;;;4969301;28;20190;-51
2021/12/15 03:27:20;;;;;;;107.53;14.23;;;;;;;;;;4964119;28;20202;-50
2021/12/15 03:35:32;;;;;;;74.17;10.13;;;7.70;99.90;;;;;;4968317;28;20191;-51
2021/12/15 03:37:58;;;;;;;102.80;13.67;;;7.30;99.90;;;;;;4972733;28;20182;-51
2021/12/15 03:40:36;;;;;;;154.00;19.73;;;7.60;99.90;;;;;;4968357;28;20612;-50
2021/12/15 03:43:06;;;;;;;97.07;12.43;;;7.60;99.90;;;;;;4975040;28;20208;-51
2021/12/15 03:45:58;;;;;;;116.53;15.23;;;7.70;99.90;;;;;;4968849;28;20225;-50
2021/12/15 03:48:29;;;;;;;110.37;14.43;;;7.70;99.90;;;;;;4968656;28;20193;-50
2021/12/15 03:50:56;;;;;;;130.83;17.13;;;;;;;;;;4970245;28;20204;-50
2021/12/15 03:53:23;;;;;;;139.97;18.27;;;7.70;99.90;;;;;;4980443;28;20209;-50
2021/12/15 03:55:50;;;;;;;102.23;13.33;;;;;;;;;;4968368;28;20178;-51
2021/12/15 03:58:16;;;;;;;149.87;19.43;;;7.70;99.90;;;;;;4973311;28;20707;-50
2021/12/15 04:00:50;;;;;;;89.27;11.80;;;7.70;99.90;;;;;;4972531;28;20884;-51
2021/12/15 04:03:17;;;;;;;139.90;18.43;;;;;;;;;;4968278;28;20275;-51
2021/12/15 04:05:43;;;;;;;78.77;10.33;;;;;;;;;;4974097;28;20768;-51
2021/12/15 04:08:09;;;;;;;164.27;20.63;;;;;;;;;;4970070;28;20305;-50
2021/12/15 04:10:36;;;;;;;134.97;17.83;;;;;;;;;;4967369;28;20214;-51
2021/12/15 04:13:02;;;;;;;78.60;11.03;;;;;;;;;;4969423;28;20220;-50
2021/12/15 04:15:30;;;;;;;82.03;11.27;;;;;;;;;;4972342;28;20228;-50
2021/12/15 04:18:02;;;;;;;88.07;11.83;;;7.70;99.90;;;;;;4974540;28;20228;-51
2021/12/15 04:20:31;;;;;;;91.57;12.30;;;7.70;99.90;;;;;;4980856;28;20196;-51
2021/12/15 04:22:57;;;;;;;72.20;9.87;;;;;;;;;;4970671;28;20741;-51
2021/12/15 04:25:30;;;;;;;125.20;16.27;;;7.60;99.90;;;;;;4969859;28;20198;-51
2021/12/15 04:28:07;;;;;;;185.40;24.53;;;7.80;99.90;;;;;;4964900;28;20183;-51
2021/12/15 04:30:37;;;;;;;89.70;12.27;;;7.70;99.90;;;;;;4966877;28;20217;-51
2021/12/15 04:33:13;;;;;;;97.07;13.13;;;7.70;99.90;;;;;;4970811;28;20753;-51
2021/12/15 04:35:40;;;;;;;112.70;15.00;;;7.70;99.90;;;;;;4970644;28;20243;-51
2021/12/15 04:38:06;;;;;;;97.20;13.20;;;7.30;99.90;;;;;;4966597;28;20451;-52
2021/12/15 04:40:33;;;;;;;159.47;21.17;;;;;;;;;;4964689;28;20228;-51
2021/12/15 04:43:00;;;;;;;101.67;13.90;;;;;;;;;;4965289;28;20209;-50
2021/12/15 04:45:26;;;;;;;139.93;18.53;;;7.50;99.90;;;;;;4965026;28;20282;-51
2021/12/15 04:47:54;;;;;;;76.63;10.33;;;7.60;99.90;;;;;;4975951;28;20206;-51
2021/12/15 04:50:23;;;;;;;125.67;16.80;;;7.70;99.90;;;;;;4972601;28;20224;-51
2021/12/15 04:52:50;;;;;;;103.87;14.03;;;7.70;99.90;;;;;;4965560;28;20205;-51
2021/12/15 04:55:16;;;;;;;138.93;18.07;;;;;;;;;;4964065;28;20268;-51
2021/12/15 04:57:43;;;;;;;109.50;14.53;;;;;;;;;;4969262;28;20670;-50
2021/12/15 05:00:13;;;;;;;126.43;16.73;;;7.70;99.90;;;;;;4967458;28;20188;-50
2021/12/15 05:02:39;;;;;;;106.33;14.33;;;;;;;;;;4967466;28;20774;-51
2021/12/15 05:05:06;;;;;;;159.50;20.83;;;;;;;;;;4957956;28;20317;-51
2021/12/15 05:07:32;;;;;;;116.63;15.70;;;;;;;;;;4971644;28;20303;-51
2021/12/15 05:09:59;;;;;;;111.37;14.87;;;;;;;;;;4971555;28;20189;-51
2021/12/15 05:12:26;;;;;;;88.83;12.00;;;;;;;;;;4970008;28;20562;-51
2021/12/15 05:14:52;;;;;;;144.97;19.27;;;;;;;;;;4959277;28;20268;-50
2021/12/15 05:17:17;;;;;;;114.17;15.40;;;7.70;99.90;;;;;;4977184;28;20269;-51
2021/12/15 05:19:46;;;;;;;104.67;13.93;;;;;;;;;;4969331;28;20185;-52
2021/12/15 05:22:13;;;;;;;110.27;14.87;;;;;;;;;;4972482;28;20237;-51
2021/12/15 05:24:40;;;;;;;86.80;11.83;;;;;;;;;;4959428;28;20895;-52
2021/12/15 05:27:10;;;;;;;89.17;11.87;;;7.70;99.90;;;;;;4968786;28;20698;-52
2021/12/15 05:29:37;;;;;;;107.93;14.47;;;7.90;99.90;;;;;;4965199;28;20225;-51
2021/12/15 05:32:04;;;;;;;145.33;18.90;;;;;;;;;;4967175;28;20946;-51
2021/12/15 05:34:31;;;;;;;156.47;20.63;;;;;;;;;;4968513;28;20193;-51
2021/12/15 05:36:57;;;;;;;136.57;18.07;;;;;;;;;;4971643;28;20437;-52
2021/12/15 05:39:24;;;;;;;85.47;11.53;;;;;;;;;;4964098;28;20185;-52
2021/12/15 05:41:51;;;;;;;112.03;15.03;;;;;;;;;;4963399;28;20228;-52
2021/12/15 05:44:17;;;;;;;128.43;17.07;;;;;;;;;;4962134;28;21394;-51
2021/12/15 05:46:43;;;;;;;92.87;12.80;;;;;;;;;;4966874;28;20191;-52
2021/12/15 05:49:09;;;;;;;104.87;14.13;;;;;;;;;;4972495;28;20197;-51
2021/12/15 05:51:37;;;;;;;74.33;10.20;;;7.70;99.90;;;;;;4963696;28;20220;-52
2021/12/15 05:54:03;;;;;;;93.13;12.70;;;;;;;;;;4962550;28;20418;-52
2021/12/15 05:56:29;;;;;;;72.80;10.10;;;;;;;;;;4969666;28;20186;-51
2021/12/15 05:58:55;;;;;;;101.40;13.60;;;;;;;;;;4968490;28;20296;-52
2021/12/15 06:01:21;;;;;;;165.93;22.23;;;;;;;;;;4964670;28;20373;-51
2021/12/15 06:03:47;;;;;;;111.03;14.77;;;;;;;;;;4967279;28;20197;-52
2021/12/15 06:06:13;;;;;;;156.63;20.80;;;;;;;;;;4965694;28;20200;-52
2021/12/15 06:08:39;;;;;;;105.20;14.13;;;;;;;;;;4968246;28;20619;-50
2021/12/15 06:11:05;;;;;;;117.40;15.60;;;7.80;99.90;;;;;;4961541;28;20251;-51
2021/12/15 06:13:31;;;;;;;132.77;17.27;;;;;;;;;;4963821;28;20248;-51
2021/12/15 06:15:58;;;;;;;110.53;14.70;;;7.70;99.90;;;;;;4970276;28;20178;-52
2021/12/15 06:18:25;;;;;;;186.33;24.40;;;7.70;99.90;;;;;;4966592;28;20190;-52
2021/12/15 06:20:53;;;;;;;121.97;16.17;;;7.70;99.90;;;;;;4962731;28;20272;-51
2021/12/15 06:23:20;;;;;;;123.97;16.40;;;;;;;;;;4972772;28;20248;-51
2021/12/15 06:25:59;;;;;;;115.30;15.23;;;7.70;99.90;;;;;;4975557;28;20192;-52
2021/12/15 06:28:27;;;;;;;121.90;16.17;;;7.70;99.90;;;;;;4965350;28;20258;-52
2021/12/15 06:30:53;;;;;;;57.27;7.97;;;;;;;;;;4965393;28;20226;-52
2021/12/15 06:33:20;;;;;;;186.17;24.73;;;;;;;;;;4966746;28;20209;-52
2021/12/15 06:35:53;;;;;;;119.43;15.93;;;;;;;;;;4965896;28;20183;-51
2021/12/15 06:38:23;;;;;;;160.07;20.93;;;7.70;99.90;;;;;;4956786;28;20658;-51
2021/12/15 06:40:50;;;;;;;158.07;20.83;;;;;;;;;;4963051;28;20202;-52
2021/12/15 06:43:16;;;;;;;129.30;16.93;;;;;;;;;;4964087;28;20236;-52
2021/12/15 06:59:16;;;;;;;82.73;11.27;;;;;;;;;;4969568;28;20221;-51
2021/12/15 07:01:42;;;;;;;113.10;15.03;;;;;;;;;;4967656;28;20804;-51
2021/12/15 07:04:08;;;;;;;112.10;15.10;;;;;;;;;;4960014;28;20271;-51
2021/12/15 07:06:34;;;;;;;135.70;17.90;;;;;;;;;;4971299;28;20476;-52
2021/12/15 07:09:00;;;;;;;107.60;14.50;;;;;;;;;;4963859;28;20190;-51
2021/12/15 07:11:26;;;;;;;107.30;14.47;;;;;;;;;;4957881;28;20220;-51
2021/12/15 07:13:52;;;;;;;148.40;19.70;;;;;;;;;;4963980;28;20403;-51
2021/12/15 07:16:19;;;;;;;114.23;15.07;;;;;;;;;;4952341;28;22102;-51
2021/12/15 07:19:04;;;;;;;135.30;17.83;;;;;;;;;;4964912;28;20233;-51
2021/12/15 07:21:36;;;;;;;132.23;17.30;;;7.70;99.90;;;;;;4962265;28;20250;-51
2021/12/15 07:24:03;;;;;;;124.60;16.20;;;;;;;;;;4964667;28;20193;-51
2021/12/15 07:26:29;;;;;;;126.03;16.80;;;;;;;;;;4972204;28;20285;-51
2021/12/15 07:28:55;;;;;;;136.87;17.73;;;;;;;;;;4960077;28;20185;-51
2021/12/15 07:31:21;;;;;;;119.50;15.80;;;;;;;;;;4962646;28;20431;-51
2021/12/15 07:33:47;;;;;;;105.73;13.90;;;;;;;;;;4969296;28;20503;-51
2021/12/15 07:36:15;;;;;;;134.93;17.60;;;;;;;;;;4965877;28;20182;-51
2021/12/15 07:38:41;;;;;;;105.97;14.23;;;;;;;;;;4964216;28;20183;-51
2021/12/15 07:41:24;;;;;;;104.53;14.07;;;7.60;99.90;;;;;;4969247;28;20205;-51
2021/12/15 07:43:51;;;;;;;87.53;11.83;;;8.00;99.90;;;;;;4975364;28;20644;-51
2021/12/15 07:46:17;;;;;;;111.60;15.23;;;;;;;;;;4968441;28;20202;-51
2021/12/15 07:48:43;;;;;;;88.10;12.07;;;;;;;;;;4970780;28;20190;-50
2021/12/15 07:51:10;;;;;;;121.00;16.27;;;7.80;99.90;;;;;;4966090;28;20213;-50
2021/12/15 07:53:38;;;;;;;78.27;10.90;;;8.10;99.90;;;;;;4968679;28;20572;-50
2021/12/15 07:56:04;;;;;;;159.33;21.33;;;;;;;;;;4957423;28;20237;-51
2021/12/15 07:58:30;;;;;;;115.90;15.63;;;7.60;99.90;;;;;;4965892;28;20586;-50
2021/12/15 08:00:59;;;;;;;117.20;15.80;;;8.20;99.90;;;;;;4962172;28;20201;-50
2021/12/15 08:03:26;;;;;;;144.83;19.37;;;;;;;;;;4963956;28;21001;-51
2021/12/15 08:05:53;;;;;;;99.47;13.57;;;8.10;99.90;;;;;;4968099;28;20648;-50
2021/12/15 08:08:19;;;;;;;121.97;16.13;;;7.90;99.90;;;;;;4969592;28;20371;-50
2021/12/15 08:10:45;;;;;;;185.90;24.57;;;;;;;;;;4958978;28;20214;-50
2021/12/15 08:13:11;;;;;;;185.43;24.87;;;;;;;;;;4955657;28;20583;-51
2021/12/15 08:15:38;;;;;;;103.77;14.10;;;;;;;;;;4955836;28;20272;-51
2021/12/15 08:18:05;;;;;;;168.23;22.67;;;8.20;99.90;;;;;;4959708;28;20778;-50
2021/12/15 08:20:32;;;;;;;235.27;31.03;;;8.50;99.90;;;;;;4956072;28;20698;-51
2021/12/15 08:22:58;;;;;;;88.13;12.17;;;;;;;;;;4963249;28;20285;-51
2021/12/15 08:25:24;;;;;;;103.33;14.13;;;8.10;99.90;;;;;;4965143;28;21209;-51
2021/12/15 08:27:51;;;;;;;122.57;16.60;;;8.20;99.90;;;;;;4964697;28;20274;-50
2021/12/15 08:30:21;;;;;;;118.37;16.13;;;8.10;99.90;;;;;;4961232;28;21208;-50
2021/12/15 08:32:53;;;;;;;130.20;17.63;;;8.10;99.90;;;;;;4965673;28;20673;-51
2021/12/15 08:35:21;;;;;;;194.77;25.93;;;8.10;99.90;;;;;;4955013;28;21068;-51
2021/12/15 08:37:47;;;;;;;148.87;20.03;;;;;;;;;;4970275;28;20186;-50
2021/12/15 08:40:17;;;;;;;192.47;25.70;;;8.10;99.90;;;;;;4965732;28;20195;-50
2021/12/15 08:42:43;;;;;;;142.00;19.17;;;;;;;;;;4946501;28;20344;-51
2021/12/15 08:45:09;;;;;;;89.90;12.30;;;;;;;;;;4969111;28;20189;-50
2021/12/15 08:47:36;;;;;;;145.03;19.83;;;;;;;;;;4963889;28;20193;-51
2021/12/15 08:50:02;;;;;;;111.97;15.47;;;;;;;;;;4964456;28;20185;-51
2021/12/15 08:52:28;;;;;;;105.73;14.50;;;;;;;;;;4971869;28;20582;-51
2021/12/15 08:54:54;;;;;;;76.13;10.63;;;8.40;99.90;;;;;;4976576;28;20191;-51
2021/12/15 08:57:19;;;;;;;63.23;9.20;;;8.00;99.90;;;;;;4973338;28;20240;-50
2021/12/15 08:59:45;;;;;;;90.00;12.00;;;;;;;;;;4977272;28;20193;-50
2021/12/15 09:02:11;;;;;;;70.97;10.13;;;;;;;;;;4975273;28;20205;-50
2021/12/15 09:04:37;;;;;;;98.20;13.60;;;;;;;;;;4971102;28;20190;-51
2021/12/15 09:07:04;;;;;;;153.87;20.70;;;8.10;99.90;;;;;;4973294;28;20198;-50
2021/12/15 09:09:30;;;;;;;135.10;18.80;;;;;;;;;;4964273;28;20193;-51
2021/12/15 09:11:56;;;;;;;121.20;16.70;;;;;;;;;;4952420;28;20236;-51
2021/12/15 09:14:22;;;;;;;117.10;15.87;;;8.10;99.90;;;;;;4965280;28;20177;-50
2021/12/15 09:16:52;;;;;;;143.30;19.20;;;8.20;99.90;;;;;;4960658;28;20649;-51
2021/12/15 09:19:18;;;;;;;247.57;33.07;;;;;;;;;;4959494;28;20655;-54
2021/12/15 09:21:44;;;;;;;57.20;8.30;;;8.20;99.90;;;;;;4965617;28;20221;-54
2021/12/15 09:24:12;;;;;;;90.50;12.67;;;8.20;99.90;;;;;;4966760;28;20218;-54
2021/12/15 09:26:38;;;;;;;61.03;8.93;;;;;;;;;;4973166;28;20244;-55
2021/12/15 09:29:05;;;;;;;46.27;6.93;;;8.30;99.90;;;;;;4980646;28;20337;-54
2021/12/15 09:31:31;;;;;;;52.40;7.63;;;8.20;99.90;;;;;;4981822;28;20668;-54
2021/12/15 09:33:59;;;;;;;140.43;19.03;;;8.10;99.90;;;;;;4971362;28;20221;-54
2021/12/15 09:36:26;;;;;;;64.67;9.20;;;8.20;99.90;;;;;;4975755;28;20651;-53
2021/12/15 09:38:55;;;;;;;204.77;27.80;;;8.30;99.90;;;;;;4967982;28;20639;-53
2021/12/15 09:41:23;;;;;;;70.23;9.87;;;8.30;99.90;;;;;;4968271;28;20198;-55
2021/12/15 09:43:52;;;;;;;131.40;17.87;;;7.70;99.90;;;;;;4974521;28;20907;-53
2021/12/15 09:57:36;;;;;;;60.60;8.93;;;;;;;;;;4974099;28;20507;-54
2021/12/15 10:02:56;;;;;;;51.77;7.63;;;;;;;;;;4974040;28;20225;-53
2021/12/15 10:19:46;;;;;;;63.37;9.30;;;8.50;99.90;;;;;;4978009;28;20196;-54
2021/12/15 10:22:13;;;;;;;49.33;7.37;;;;;;;;;;4973916;28;20287;-53
2021/12/15 10:24:47;;;;;;;43.73;6.60;;;8.70;99.90;;;;;;4973450;28;20194;-53
2021/12/15 10:27:30;;;;;;;77.43;11.13;;;8.60;99.90;;;;;;4967864;28;20459;-54
2021/12/15 10:30:01;;;;;;;64.13;9.33;;;;;;;;;;4971222;28;20186;-53
2021/12/15 10:32:35;;;;;;;57.77;8.40;;;8.60;99.90;;;;;;4968503;28;20249;-53
2021/12/15 10:35:09;;;;;;;58.80;8.53;;;8.70;99.90;;;;;;4971669;28;20688;-52
2021/12/15 10:37:35;;;;;;;90.13;12.60;;;;;;;;;;4972552;28;20178;-53
2021/12/15 10:40:16;;;;;;;66.87;9.83;;;;;;;;;;4976948;28;20194;-54
2021/12/15 10:42:42;;;;;;;56.50;8.43;;;;;;;;;;4975971;28;20206;-52
2021/12/15 10:45:09;;;;;;;85.43;12.00;;;;;;;;;;4972870;28;20189;-53
2021/12/15 10:47:45;;;;;;;51.73;7.70;;;8.70;99.90;;;;;;4977385;28;20244;-52
2021/12/15 10:50:12;;;;;;;85.50;12.10;;;;;;;;;;4969575;28;20193;-53
2021/12/15 10:52:49;;;;;;;69.70;10.17;;;;;;;;;;4971626;28;20720;-53
2021/12/15 10:55:15;;;;;;;118.53;16.60;;;;;;;;;;4970484;28;20666;-54
2021/12/15 10:57:44;;;;;;;100.03;13.87;;;;;;;;;;4972056;28;20193;-53
2021/12/15 11:00:14;;;;;;;161.80;22.83;;;8.70;99.90;;;;;;4947406;28;20421;-48
2021/12/15 11:02:40;;;;;;;123.30;16.93;;;;;;;;;;4956162;28;20817;-49
2021/12/15 11:05:10;;;;;;;165.30;21.80;;;8.80;99.90;;;;;;4966443;28;20196;-49
2021/12/15 11:07:52;;;;;;;226.37;30.47;;;8.70;99.90;;;;;;4960985;28;20186;-49
2021/12/15 11:10:31;;;;;;;38.97;5.83;;;8.80;99.90;;;;;;4969655;28;20189;-48
2021/12/15 11:12:59;;;;;;;39.60;5.83;;;8.90;99.90;;;;;;4974975;28;20571;-47
2021/12/15 11:15:27;;;;;;;29.03;4.50;;;;;;;;;;4974721;28;20321;-47
2021/12/15 11:18:02;;;;;;;38.70;5.97;;;;;;;;;;4975299;28;20639;-48
2021/12/15 11:20:37;;;;;;;46.70;6.87;;;9.00;99.90;;;;;;4975011;28;20210;-48
2021/12/15 11:23:22;;;;;;;38.03;5.83;;;9.00;99.90;;;;;;4975118;28;20201;-48
2021/12/15 11:25:54;;;;;;;60.40;8.93;;;;;;;;;;4973334;28;20713;-48
2021/12/15 11:28:24;;;;;;;53.03;7.90;;;8.90;99.90;;;;;;4974788;28;20186;-48
2021/12/15 11:30:55;;;;;;;37.80;5.90;;;9.10;99.90;;;;;;4974675;28;20202;-48
2021/12/15 11:33:23;;;;;;;47.10;7.23;;;;;;;;;;4974464;28;20268;-48
2021/12/15 11:35:57;;;;;;;42.37;6.47;;;9.10;99.90;;;;;;4974789;28;20178;-48
2021/12/15 11:38:25;;;;;;;42.43;6.40;;;;;;;;;;4974584;28;20182;-48
2021/12/15 11:40:57;;;;;;;40.23;6.30;;;;;;;;;;4974551;28;20194;-48
2021/12/15 11:43:31;;;;;;;45.70;7.00;;;;;;;;;;4974218;28;20765;-48
2021/12/15 11:45:59;;;;;;;36.37;5.67;;;9.10;99.90;;;;;;4974251;28;20177;-48
2021/12/15 11:48:28;;;;;;;37.23;5.83;;;9.10;99.90;;;;;;4974696;28;20262;-47
2021/12/15 11:50:56;;;;;;;44.57;6.87;;;;;;;;;;4974685;28;20206;-47
2021/12/15 11:53:30;;;;;;;77.03;11.60;;;;;;;;;;4973881;28;20611;-47
2021/12/15 11:56:10;;;;;;;39.27;6.10;;;;;;;;;;4974468;28;20246;-48
2021/12/15 11:58:36;;;;;;;23.53;3.77;;;;;;;;;;4974589;28;20550;-47
2021/12/15 12:01:02;;;;;;;50.93;7.87;;;;;;;;;;4974125;28;20631;-47
2021/12/15 12:03:28;;;;;;;31.23;5.10;;;;;;;;;;4973433;28;20548;-47
2021/12/15 12:05:54;;;;;;;41.80;6.33;;;;;;;;;;4974534;28;20181;-47
2021/12/15 12:08:20;;;;;;;45.60;7.03;;;8.90;99.90;;;;;;4983458;28;20192;-47
2021/12/15 12:10:49;;;;;;;65.13;10.00;;;8.90;99.90;;;;;;4993165;28;20178;-47
2021/12/15 12:13:24;;;;;;;57.97;8.63;;;;;;;;;;4992083;28;20209;-47
2021/12/15 12:15:56;;;;;;;33.13;5.23;;;9.00;99.90;;;;;;4993665;28;20154;-47
2021/12/15 12:18:23;;;;;;;41.87;6.53;;;;;;;;;;4992787;28;20189;-47
2021/12/15 12:20:58;;;;;;;56.93;8.93;;;9.00;99.90;;;;;;4993588;28;20657;-47
2021/12/15 12:23:26;;;;;;;54.80;8.30;;;;;;;;;;4993149;28;20295;-47
2021/12/15 12:25:54;;;;;;;42.23;6.80;;;;;;;;;;4993268;28;20224;-47
2021/12/15 12:28:22;;;;;;;53.43;8.03;;;;;;;;;;4993261;28;20182;-47
2021/12/15 12:30:55;;;;;;;59.13;9.07;;;9.10;99.90;;;;;;4992662;28;20261;-48
2021/12/15 12:33:24;;;;;;;32.17;5.33;;;9.10;99.90;;;;;;4993153;28;20331;-47
2021/12/15 12:35:56;;;;;;;39.03;6.07;;;9.10;99.90;;;;;;4992011;28;20550;-48
2021/12/15 12:38:26;;;;;;;44.23;7.00;;;;;;;;;;4991946;28;20185;-47
2021/12/15 12:41:01;;;;;;;35.63;5.80;;;9.20;99.90;;;;;;4993284;28;20276;-47
2021/12/15 12:43:30;;;;;;;22.03;3.73;;;;;;;;;;4992805;28;20677;-47
2021/12/15 12:46:11;;;;;;;43.30;6.97;;;;;;;;;;4993104;28;20173;-47
2021/12/15 12:59:27;;;;;;;57.57;8.83;;;;;;;;;;4979595;28;20184;-48
2021/12/15 13:01:53;;;;;;;50.60;8.13;;;;;;;;;;4990968;28;20215;-48
2021/12/15 13:04:19;;;;;;;58.07;9.07;;;;;;;;;;4988933;28;20182;-47
2021/12/15 13:06:45;;;;;;;82.90;12.80;;;;;;;;;;4970472;28;20236;-48
2021/12/15 13:09:17;;;;;;;59.93;9.37;;;9.40;99.90;;;;;;4971566;28;20185;-48
2021/12/15 13:11:49;;;;;;;42.87;6.93;;;;;;;;;;4971424;28;20242;-48
2021/12/15 13:14:17;;;;;;;61.57;9.60;;;;;;;;;;4970815;28;20162;-47
2021/12/15 13:16:54;;;;;;;64.70;9.90;;;;;;;;;;4971635;28;20170;-47
2021/12/15 13:19:25;;;;;;;70.97;10.80;;;;;;;;;;4971213;28;20232;-47
2021/12/15 13:30:27;;;;;;;50.80;8.00;;;;;;;;;;4970930;28;20233;-47
2021/12/15 13:33:00;;;;;;;68.07;10.80;;;;;;;;;;4970865;28;20287;-47
2021/12/15 13:35:27;;;;;;;66.30;10.47;;;9.30;99.90;;;;;;4977721;28;20590;-48
2021/12/15 13:37:59;;;;;;;56.90;9.07;;;;;;;;;;4990494;28;20739;-47
2021/12/15 13:40:44;;;;;;;52.37;8.33;;;;;;;;;;4990045;28;20228;-47
2021/12/15 13:43:28;;;;;;;195.13;28.60;;;;;;;;;;5003357;23;20240;-54
2021/12/15 13:45:54;;;;;;;120.97;18.07;;;;;;;;;;5005440;28;20188;-54
2021/12/15 13:48:40;;;;;;;175.30;25.63;;;;;;;;;;5010017;28;20184;-54
2021/12/15 13:51:06;;;;;;;128.67;18.93;;;;;;;;;;4990675;28;20290;-54
2021/12/15 13:53:32;;;;;;;125.07;18.30;;;;;;;;;;5022253;28;20185;-54
2021/12/15 13:55:58;;;;;;;188.57;27.80;;;;;;;;;;5011723;28;20242;-53
2021/12/15 13:58:25;;;;;;;99.90;15.27;;;;;;;;;;5029014;28;20721;-53
2021/12/15 14:00:59;;;;;;;149.63;21.87;;;;;;;;;;5022554;28;20235;-54
2021/12/15 14:03:27;;;;;;;328.97;50.33;;;;;;;;;;5024729;28;20704;-54
2021/12/15 14:06:05;;;;;;;113.63;17.40;;;9.40;99.90;;;;;;5026894;28;20271;-54
2021/12/15 14:08:44;;;;;;;139.57;21.20;;;;;;;;;;5031340;28;20520;-54
2021/12/15 14:11:20;;;;;;;142.67;21.37;;;;;;;;;;5026460;28;20208;-54
2021/12/15 14:13:58;;;;;;;133.50;19.70;;;;;;;;;;5013641;28;20219;-54
2021/12/15 14:16:31;;;;;;;401.43;62.40;;;;;;;;;;5004424;28;21145;-54
2021/12/15 14:18:59;;;;;;;119.77;17.33;;;;;;;;;;5021991;28;20206;-54
2021/12/15 14:21:25;;;;;;;423.23;73.27;;;;;;;;;;5010152;28;20246;-54
2021/12/15 14:23:53;;;;;;;160.93;23.57;;;;;;;;;;5016628;28;20274;-54
2021/12/15 14:26:24;;;;;;;127.67;18.70;;;;;;;;;;5025381;28;20196;-54
2021/12/15 14:28:54;;;;;;;198.97;29.03;;;;;;;;;;5014997;28;20192;-54
2021/12/15 14:31:23;;;;;;;145.63;21.40;;;;;;;;;;5021901;28;20676;-54
2021/12/15 14:33:58;;;;;;;121.97;18.50;;;9.20;99.90;;;;;;5020044;28;20188;-54
2021/12/15 14:36:26;;;;;;;118.67;17.77;;;;;;;;;;5016006;28;20701;-54
2021/12/15 14:38:52;;;;;;;186.63;27.53;;;;;;;;;;5027052;28;20191;-54
2021/12/15 14:41:28;;;;;;;112.73;16.93;;;;;;;;;;5025831;28;20183;-54
2021/12/15 14:43:56;;;;;;;147.60;21.77;;;;;;;;;;5029204;28;20579;-54
2021/12/15 14:46:30;;;;;;;118.23;18.23;;;;;;;;;;5033205;28;20214;-54
2021/12/15 14:49:05;;;;;;;144.07;22.23;;;;;;;;;;5027734;28;20199;-54
2021/12/15 14:51:31;;;;;;;211.03;31.97;;;;;;;;;;5021277;28;20234;-54
2021/12/15 14:53:58;;;;;;;157.33;24.03;;;;;;;;;;5026179;28;20191;-54
2021/12/15 14:56:44;;;;;;;266.60;40.23;;;9.20;99.90;;;;;;5014852;28;20816;-54
2021/12/15 14:59:13;;;;;;;213.97;32.13;;;9.20;99.90;;;;;;5022183;28;20207;-54
2021/12/15 15:01:39;;;;;;;220.90;32.87;;;;;;;;;;5023271;28;20212;-54
2021/12/15 15:04:06;;;;;;;181.97;27.90;;;;;;;;;;5037020;28;20241;-54
2021/12/15 15:06:33;;;;;;;151.30;23.20;;;9.10;99.90;;;;;;5030351;28;20245;-54
2021/12/15 15:09:13;;;;;;;128.10;19.37;;;;;;;;;;5026188;28;20206;-54
2021/12/15 15:12:09;;;;;;;146.77;22.27;;;;;;;;;;5024944;28;20538;-54
2021/12/15 15:14:41;;;;;;;130.90;19.90;;;9.20;99.90;;;;;;5018337;28;20227;-54